Time;durP1;ratioP1;P1;durP2;ratioP2;P2;SDS_P1;SDS_P2;PMS_P1;PMS_P2;Temp;Humidity;BMP_temperature;BMP_pressure;BME280_temperature;BME280_humidity;BME280_pressure;Samples;Min_cycle;Max_cycle;Signal;HPM_P1;HPM_P2
2023/07/04 00:01:56;;;;;;;6.40;1.90;;;;;;;14.97;93.71;97102.00;5044215;28;20044;-60
2023/07/04 00:04:23;;;;;;;6.13;2.10;;;;;;;14.89;93.77;97097.97;5041643;28;20060;-60
2023/07/04 00:06:50;;;;;;;3.67;1.52;;;;;;;15.06;92.56;97098.34;5042963;28;20044;-59
2023/07/04 00:09:17;;;;;;;4.82;1.70;;;;;;;14.97;94.28;97091.09;5042289;28;20569;-59
2023/07/04 00:11:44;;;;;;;3.47;1.90;;;;;;;15.11;92.76;97102.94;5051921;28;20040;-58
2023/07/04 00:14:11;;;;;;;5.13;2.03;;;;;;;14.93;93.71;97099.03;5038244;28;20053;-59
2023/07/04 00:16:37;;;;;;;5.75;2.22;;;;;;;14.77;95.53;97093.72;5044376;28;20412;-59
2023/07/04 00:19:05;;;;;;;4.88;1.67;;;;;;;14.73;96.19;97094.53;5030614;28;20038;-60
2023/07/04 00:21:33;;;;;;;5.15;1.67;;;;;;;14.87;96.53;97097.44;5038618;28;20041;-60
2023/07/04 00:23:59;;;;;;;5.63;1.90;;;;;;;15.05;95.22;97107.63;5038639;28;20049;-59
2023/07/04 00:26:26;;;;;;;4.32;2.13;;;;;;;14.88;96.95;97099.88;5045133;28;20044;-59
2023/07/04 00:28:53;;;;;;;4.53;1.50;;;;;;;14.93;96.90;97102.56;5044676;28;20032;-59
2023/07/04 00:31:23;;;;;;;5.25;1.88;;;;;;;14.91;97.49;97090.31;5033722;28;20125;-60
2023/07/04 00:33:52;;;;;;;2.85;1.48;;;;;;;14.95;97.08;97099.53;5045533;28;20118;-60
2023/07/04 00:36:19;;;;;;;5.00;1.83;;;;;;;15.01;96.67;97097.59;5046138;28;20708;-60
2023/07/04 00:38:48;;;;;;;4.50;1.92;;;;;;;15.16;95.36;97107.53;5036288;28;20499;-60
2023/07/04 00:41:20;;;;;;;4.10;2.00;;;;;;;15.25;94.59;97100.34;5037785;28;20064;-60
2023/07/04 00:44:01;;;;;;;5.47;1.98;;;;;;;15.25;95.08;97099.53;5032824;28;20157;-60
2023/07/04 00:46:52;;;;;;;3.28;1.52;;;;;;;15.32;94.95;97102.72;5023097;28;20141;-60
2023/07/04 00:49:26;;;;;;;3.50;1.30;;;;;;;15.26;95.50;97096.50;5016692;28;20044;-60
2023/07/04 00:52:01;;;;;;;4.25;2.00;;;;;;;15.45;94.17;97102.00;5020172;28;20037;-59
2023/07/04 00:54:38;;;;;;;3.28;1.58;;;;;;;15.58;93.41;97099.69;5040901;28;20455;-60
2023/07/04 00:57:06;;;;;;;2.90;1.52;;;;;;;15.60;93.37;97111.13;5041955;28;20128;-59
2023/07/04 00:59:37;;;;;;;4.07;1.50;;;;;;;15.44;94.53;97111.31;5047582;28;20076;-58
2023/07/04 01:02:27;;;;;;;3.55;1.35;;;;;;;15.42;95.00;97116.25;5029237;28;20077;-60
2023/07/04 01:04:56;;;;;;;3.17;1.30;;;;;;;15.46;94.96;97113.75;5041138;28;20525;-60
2023/07/04 01:07:46;;;;;;;4.05;1.67;;;;;;;15.42;95.57;97113.53;5043524;28;20098;-59
2023/07/04 01:10:29;;;;;;;3.90;1.65;;;;;;;15.46;95.43;97111.84;5037615;28;20041;-61
2023/07/04 01:12:55;;;;;;;8.57;1.67;;;;;;;15.46;95.56;97119.22;5037141;28;20527;-57
2023/07/04 01:15:23;;;;;;;4.30;2.00;;;;;;;15.59;94.99;97114.97;5038939;28;20037;-60
2023/07/04 01:17:53;;;;;;;3.25;1.67;;;;;;;15.62;94.51;97117.09;5044405;28;20094;-60
2023/07/04 01:20:20;;;;;;;3.75;1.35;;;;;;;15.59;94.78;97110.31;5042948;28;20069;-60
2023/07/04 01:23:14;;;;;;;3.78;1.70;;;;;;;15.50;95.84;97116.69;5045016;28;20045;-58
2023/07/04 01:25:52;;;;;;;4.70;1.83;;;;;;;15.48;95.93;97117.81;5033152;28;20499;-59
2023/07/04 01:28:19;;;;;;;3.25;1.60;;;;;;;15.50;96.00;97122.16;5041108;28;20052;-57
2023/07/04 01:30:47;;;;;;;3.35;1.50;;;;;;;15.53;95.76;97122.41;5041963;28;20065;-60
2023/07/04 01:33:14;;;;;;;3.33;1.55;;;;;;;15.58;95.83;97129.72;5047143;28;20037;-60
2023/07/04 01:35:43;;;;;;;4.43;1.50;;;;;;;15.53;96.45;97132.50;5044358;28;20064;-60
2023/07/04 01:38:11;;;;;;;4.05;1.50;;;;;;;15.41;97.59;97130.97;5044843;28;20118;-60
2023/07/04 01:40:37;;;;;;;6.80;1.80;;;;;;;15.36;98.49;97119.34;5024906;28;21213;-59
2023/07/04 01:43:05;;;;;;;3.50;1.60;;;;;;;15.45;98.15;97131.22;5035902;28;20049;-58
2023/07/04 01:45:32;;;;;;;3.75;1.75;;;;;;;15.45;98.47;97123.84;5036794;28;20122;-60
2023/07/04 01:47:59;;;;;;;3.75;1.70;;;;;;;15.28;99.92;97123.47;5042865;28;20041;-60
2023/07/04 01:50:26;;;;;;;4.03;1.73;;;;;;;15.33;99.58;97126.16;5040817;28;20079;-61
2023/07/04 01:52:52;;;;;;;3.72;1.70;;;;;;;15.37;99.20;97121.75;5034152;28;20048;-60
2023/07/04 01:55:19;;;;;;;3.95;2.00;;;;;;;15.21;100.00;97121.09;5040316;28;20059;-60
2023/07/04 01:57:47;;;;;;;4.38;1.70;;;;;;;15.30;99.86;97116.63;5043670;28;20649;-58
2023/07/04 02:00:14;;;;;;;4.85;1.75;;;;;;;15.25;100.00;97124.88;5042782;28;20087;-60
2023/07/04 02:02:56;;;;;;;3.67;1.90;;;;;;;15.04;100.00;97119.63;5045667;28;20048;-60
2023/07/04 02:05:23;;;;;;;7.53;2.35;;;;;;;15.21;100.00;97113.75;5051281;28;20044;-59
2023/07/04 02:07:50;;;;;;;3.78;1.88;;;;;;;15.11;100.00;97123.94;5036349;28;20103;-60
2023/07/04 02:10:17;;;;;;;5.40;1.80;;;;;;;15.03;100.00;97119.91;5045093;28;20033;-59
2023/07/04 02:12:43;;;;;;;5.65;1.98;;;;;;;15.02;100.00;97110.13;5041589;28;20064;-60
2023/07/04 02:15:11;;;;;;;4.15;1.90;;;;;;;15.10;100.00;97114.16;5039809;28;20059;-61
2023/07/04 02:17:38;;;;;;;7.30;1.80;;;;;;;15.07;100.00;97108.16;5043332;28;20049;-58
2023/07/04 02:20:05;;;;;;;3.75;1.80;;;;;;;14.94;100.00;97117.00;5044225;28;20124;-60
2023/07/04 02:22:33;;;;;;;4.35;1.58;;;;;;;14.93;100.00;97109.94;5039498;28;20045;-58
2023/07/04 02:24:59;;;;;;;4.72;2.60;;;;;;;14.95;100.00;97107.72;5042297;28;20523;-59
2023/07/04 02:27:26;;;;;;;5.38;2.00;;;;;;;14.93;100.00;97107.22;5051846;28;20055;-60
2023/07/04 02:29:52;;;;;;;4.18;2.00;;;;;;;14.82;100.00;97109.22;5038484;28;20749;-60
2023/07/04 02:32:19;;;;;;;3.58;1.70;;;;;;;14.88;100.00;97102.59;5050771;28;20067;-60
2023/07/04 02:34:45;;;;;;;5.47;2.03;;;;;;;14.65;100.00;97102.25;5050279;28;20048;-60
2023/07/04 02:37:14;;;;;;;4.90;2.22;;;;;;;14.57;100.00;97109.09;5048872;28;20083;-60
2023/07/04 02:39:41;;;;;;;4.78;2.03;;;;;;;14.55;100.00;97107.75;5039069;28;20277;-60
2023/07/04 02:42:08;;;;;;;5.00;2.00;;;;;;;14.43;100.00;97119.03;5036463;28;20192;-61
2023/07/04 02:44:35;;;;;;;6.30;1.92;;;;;;;14.21;100.00;97120.25;5040353;28;20069;-59
2023/07/04 02:47:04;;;;;;;6.93;2.13;;;;;;;14.22;100.00;97116.44;5051064;28;20037;-60
2023/07/04 02:49:35;;;;;;;4.55;1.90;;;;;;;14.39;100.00;97120.69;5041740;28;20127;-59
2023/07/04 02:52:02;;;;;;;6.55;1.90;;;;;;;14.56;100.00;97115.66;5043669;28;20049;-60
2023/07/04 02:54:29;;;;;;;3.58;2.00;;;;;;;14.54;100.00;97122.47;5035533;28;20420;-60
2023/07/04 02:56:56;;;;;;;4.65;1.90;;;;;;;14.63;100.00;97118.03;5049696;28;20052;-61
2023/07/04 02:59:22;;;;;;;6.90;1.92;;;;;;;14.69;100.00;97129.72;5041369;28;20129;-60
2023/07/04 03:01:51;;;;;;;3.78;1.77;;;;;;;14.67;100.00;97126.47;5043583;28;20037;-59
2023/07/04 03:04:18;;;;;;;4.18;1.90;;;;;;;14.62;100.00;97127.31;5038933;28;20064;-60
2023/07/04 03:06:45;;;;;;;9.75;2.08;;;;;;;14.51;100.00;97139.38;5042021;28;20037;-60
2023/07/04 03:09:12;;;;;;;3.88;1.98;;;;;;;14.49;100.00;97131.50;5042685;28;20511;-59
2023/07/04 03:11:40;;;;;;;3.47;1.77;;;;;;;14.52;100.00;97130.94;5038203;28;20049;-59
2023/07/04 03:14:07;;;;;;;5.97;1.80;;;;;;;14.58;100.00;97131.72;5043620;28;20037;-57
2023/07/04 03:16:33;;;;;;;5.35;1.80;;;;;;;14.55;100.00;97133.09;5054796;28;20120;-59
2023/07/04 03:19:01;;;;;;;5.18;1.92;;;;;;;14.49;100.00;97133.41;5035900;28;20075;-58
2023/07/04 03:21:27;;;;;;;4.57;1.95;;;;;;;14.37;100.00;97142.75;5038186;28;20045;-60
2023/07/04 03:23:56;;;;;;;3.13;1.58;;;;;;;14.57;100.00;97139.06;5040928;28;20517;-60
2023/07/04 03:26:22;;;;;;;4.25;1.98;;;;;;;14.62;100.00;97134.66;5048211;28;20067;-59
2023/07/04 03:28:49;;;;;;;3.70;1.70;;;;;;;14.66;100.00;97139.28;5051426;28;20040;-58
2023/07/04 03:31:16;;;;;;;3.90;1.60;;;;;;;14.87;100.00;97136.41;5047342;28;20060;-58
2023/07/04 03:33:43;;;;;;;5.15;1.73;;;;;;;14.87;100.00;97143.78;5044420;28;20102;-59
2023/07/04 03:36:10;;;;;;;5.32;2.00;;;;;;;14.84;100.00;97145.16;5039555;28;20045;-59
2023/07/04 03:38:40;;;;;;;4.88;1.90;;;;;;;14.88;100.00;97145.41;5038050;28;20076;-60
2023/07/04 03:41:06;;;;;;;3.88;1.70;;;;;;;14.94;100.00;97142.38;5031441;28;20045;-59
2023/07/04 03:43:33;;;;;;;6.03;1.75;;;;;;;14.81;100.00;97145.72;5039489;28;20040;-59
2023/07/04 03:45:59;;;;;;;4.93;1.73;;;;;;;14.87;100.00;97150.06;5043155;28;20670;-60
2023/07/04 03:48:26;;;;;;;4.43;1.75;;;;;;;15.08;100.00;97152.59;5038986;28;20052;-58
2023/07/04 03:50:53;;;;;;;3.47;1.60;;;;;;;15.20;100.00;97147.59;5042255;28;20055;-60
2023/07/04 03:53:20;;;;;;;5.20;1.70;;;;;;;15.25;100.00;97143.19;5032825;28;20120;-58
2023/07/04 03:55:49;;;;;;;4.43;1.90;;;;;;;15.34;100.00;97155.88;5044412;28;20049;-60
2023/07/04 03:58:17;;;;;;;2.75;1.42;;;;;;;15.44;100.00;97148.72;5041996;28;20053;-60
2023/07/04 04:00:47;;;;;;;4.15;1.60;;;;;;;15.35;100.00;97153.97;5043365;28;20412;-60
2023/07/04 04:03:14;;;;;;;4.70;2.03;;;;;;;15.36;100.00;97154.78;5039738;28;20045;-60
2023/07/04 04:05:42;;;;;;;3.47;1.50;;;;;;;15.11;100.00;97149.28;5045288;28;20044;-60
2023/07/04 04:08:09;;;;;;;4.30;1.63;;;;;;;15.02;100.00;97148.28;5044537;28;20045;-60
2023/07/04 04:10:35;;;;;;;4.50;1.55;;;;;;;15.07;100.00;97150.94;5049690;28;20048;-60
2023/07/04 04:13:02;;;;;;;4.18;1.80;;;;;;;15.14;100.00;97147.91;5037599;28;20076;-59
2023/07/04 04:15:28;;;;;;;4.18;2.03;;;;;;;15.28;100.00;97145.31;5046349;28;20052;-58
2023/07/04 04:17:55;;;;;;;3.22;1.25;;;;;;;15.40;100.00;97153.13;5046280;28;20032;-58
2023/07/04 04:20:22;;;;;;;3.60;1.63;;;;;;;15.37;100.00;97151.75;5046222;28;20037;-59
2023/07/04 04:22:49;;;;;;;3.45;1.48;;;;;;;15.31;100.00;97151.03;5041526;28;20115;-57
2023/07/04 04:25:16;;;;;;;3.50;1.63;;;;;;;15.18;100.00;97152.50;5044628;28;20803;-60
2023/07/04 04:27:46;;;;;;;2.60;1.42;;;;;;;15.23;100.00;97139.91;5040986;28;20041;-58
2023/07/04 04:30:13;;;;;;;4.72;1.77;;;;;;;15.36;100.00;97146.63;5032263;28;20043;-58
2023/07/04 04:32:41;;;;;;;3.22;1.50;;;;;;;15.37;100.00;97140.84;5040103;28;20116;-61
2023/07/04 04:35:08;;;;;;;3.90;2.22;;;;;;;15.52;100.00;97150.78;5044486;28;20546;-58
2023/07/04 04:37:35;;;;;;;5.47;1.83;;;;;;;15.69;99.82;97150.31;5048604;28;20056;-60
2023/07/04 04:40:04;;;;;;;2.65;1.40;;;;;;;15.79;98.80;97143.94;5041014;28;20573;-59
2023/07/04 04:42:34;;;;;;;2.92;1.30;;;;;;;15.76;99.16;97144.50;5041384;28;20115;-58
2023/07/04 04:45:01;;;;;;;3.38;1.52;;;;;;;15.86;98.38;97151.78;5043619;28;20124;-59
2023/07/04 04:47:33;;;;;;;3.60;1.52;;;;;;;16.03;97.04;97155.97;5050665;28;20073;-59
2023/07/04 04:50:01;;;;;;;3.92;1.50;;;;;;;16.01;97.37;97161.72;5043304;28;20099;-59
2023/07/04 04:52:29;;;;;;;4.18;1.27;;;;;;;15.91;98.12;97154.44;5040406;28;20132;-59
2023/07/04 04:54:57;;;;;;;3.22;1.30;;;;;;;15.84;98.58;97162.97;5040926;28;20067;-60
2023/07/04 04:57:23;;;;;;;4.68;1.40;;;;;;;15.85;98.41;97161.06;5050810;28;20060;-59
2023/07/04 04:59:50;;;;;;;3.67;1.80;;;;;;;15.82;98.12;97169.84;5041244;28;20044;-60
2023/07/04 05:02:17;;;;;;;3.78;1.60;;;;;;;15.94;97.14;97163.94;5036997;28;20538;-57
2023/07/04 05:04:44;;;;;;;4.60;2.20;;;;;;;15.94;97.47;97162.06;5044844;28;20649;-58
2023/07/04 05:07:12;;;;;;;4.00;1.42;;;;;;;15.94;97.27;97170.28;5042810;28;20103;-59
2023/07/04 05:09:39;;;;;;;5.65;2.00;;;;;;;15.97;97.69;97166.97;5043611;28;20581;-57
2023/07/04 05:12:05;;;;;;;4.25;1.50;;;;;;;15.90;97.64;97173.81;5042348;28;20056;-58
2023/07/04 05:14:32;;;;;;;3.17;1.45;;;;;;;16.01;97.18;97171.81;5043990;28;20044;-56
2023/07/04 05:17:00;;;;;;;3.70;1.55;;;;;;;16.09;96.54;97180.19;5038984;28;20033;-60
2023/07/04 05:19:26;;;;;;;3.17;1.48;;;;;;;16.15;96.66;97177.38;5041619;28;20044;-58
2023/07/04 05:21:53;;;;;;;3.40;1.58;;;;;;;16.16;96.86;97176.25;5050365;28;20112;-57
2023/07/04 05:24:19;;;;;;;3.03;1.52;;;;;;;16.21;96.57;97176.19;5046924;28;20408;-58
2023/07/04 05:26:46;;;;;;;3.22;1.67;;;;;;;16.26;95.56;97181.59;5046685;28;20045;-58
2023/07/04 05:29:12;;;;;;;3.67;1.80;;;;;;;16.33;94.73;97183.97;5048542;28;20127;-58
2023/07/04 05:31:39;;;;;;;4.53;1.70;;;;;;;16.34;93.62;97186.41;5045278;28;20686;-59
2023/07/04 05:34:06;;;;;;;4.00;1.70;;;;;;;16.43;93.29;97186.56;5041857;28;20060;-56
2023/07/04 05:36:33;;;;;;;4.03;1.55;;;;;;;16.65;90.65;97185.16;5046428;28;20511;-59
2023/07/04 05:39:03;;;;;;;3.60;1.60;;;;;;;16.71;90.71;97191.34;5043203;28;20106;-59
2023/07/04 05:41:31;;;;;;;4.00;1.40;;;;;;;16.72;89.79;97185.59;5042168;28;20427;-59
2023/07/04 05:44:00;;;;;;;4.47;1.60;;;;;;;16.83;89.26;97183.50;5038767;28;20405;-59
2023/07/04 05:46:27;;;;;;;5.13;1.70;;;;;;;16.85;88.41;97183.22;5038342;28;20048;-59
2023/07/04 05:48:53;;;;;;;5.20;1.77;;;;;;;16.96;86.36;97184.69;5050733;28;20037;-59
2023/07/04 05:51:21;;;;;;;6.32;2.17;;;;;;;17.10;84.89;97183.94;5032965;28;20043;-58
2023/07/04 05:53:50;;;;;;;7.63;2.63;;;;;;;17.13;84.72;97195.09;5044512;28;20054;-59
2023/07/04 05:56:20;;;;;;;4.32;1.50;;;;;;;17.15;83.71;97194.78;5049184;28;20091;-59
2023/07/04 05:58:49;;;;;;;5.77;2.20;;;;;;;17.12;84.16;97192.66;5041857;28;20047;-57
2023/07/04 06:01:19;;;;;;;4.25;1.60;;;;;;;17.15;84.15;97194.78;5046009;28;20291;-57
2023/07/04 06:03:45;;;;;;;4.25;1.67;;;;;;;17.26;83.22;97190.78;5042495;28;20053;-57
2023/07/04 06:06:30;;;;;;;9.32;2.20;;;;;;;17.23;84.09;97196.03;5037474;28;20045;-58
2023/07/04 06:08:59;;;;;;;4.93;2.05;;;;;;;17.37;83.05;97198.78;5035704;28;20125;-57
2023/07/04 06:11:30;;;;;;;4.80;2.00;;;;;;;17.44;82.23;97198.41;5031479;28;20041;-58
2023/07/04 06:13:57;;;;;;;4.13;1.52;;;;;;;17.54;82.01;97198.19;5045167;28;20059;-59
2023/07/04 06:16:24;;;;;;;4.85;2.28;;;;;;;17.57;80.36;97202.28;5040528;28;20101;-56
2023/07/04 06:18:51;;;;;;;4.97;2.00;;;;;;;17.70;79.18;97203.41;5038185;28;20041;-59
2023/07/04 06:21:23;;;;;;;8.55;2.30;;;;;;;17.73;78.28;97195.38;5044585;28;20040;-59
2023/07/04 06:24:08;;;;;;;5.53;1.90;;;;;;;17.85;76.75;97196.81;5045939;28;20041;-56
2023/07/04 06:26:34;;;;;;;5.35;2.00;;;;;;;17.97;76.68;97193.56;5048637;28;20495;-57
2023/07/04 06:29:01;;;;;;;4.47;1.52;;;;;;;18.10;72.99;97194.72;5037672;28;20404;-58
2023/07/04 06:31:27;;;;;;;5.65;2.50;;;;;;;18.09;74.77;97193.88;5041713;28;20040;-59
2023/07/04 06:33:55;;;;;;;5.72;1.90;;;;;;;18.27;73.65;97199.56;5041119;28;20049;-57
2023/07/04 06:36:21;;;;;;;6.95;2.25;;;;;;;18.23;75.57;97206.75;5035013;28;20048;-58
2023/07/04 06:38:48;;;;;;;4.82;1.80;;;;;;;18.31;75.02;97206.03;5053673;28;20049;-57
2023/07/04 06:41:15;;;;;;;5.00;2.05;;;;;;;18.23;71.55;97206.75;5047099;28;20041;-59
2023/07/04 06:43:44;;;;;;;7.10;1.92;;;;;;;18.21;73.25;97218.06;5039529;28;20049;-59
2023/07/04 06:46:13;;;;;;;5.32;2.20;;;;;;;18.26;73.17;97206.97;5044224;28;20116;-58
2023/07/04 06:48:39;;;;;;;4.65;2.03;;;;;;;18.38;71.56;97211.94;5038978;28;20052;-57
2023/07/04 06:51:12;;;;;;;5.57;2.00;;;;;;;18.27;72.25;97221.47;5035439;28;20033;-59
2023/07/04 06:53:40;;;;;;;6.00;1.85;;;;;;;18.15;73.50;97227.47;5038313;28;20049;-57
2023/07/04 06:56:21;;;;;;;7.35;1.88;;;;;;;17.88;74.03;97229.09;5042613;28;20652;-54
2023/07/04 06:58:50;;;;;;;6.75;2.67;;;;;;;17.93;73.85;97226.25;5040746;28;20697;-56
2023/07/04 07:01:19;;;;;;;6.57;2.50;;;;;;;17.96;73.01;97228.38;5036775;28;20037;-55
2023/07/04 07:03:45;;;;;;;6.90;2.20;;;;;;;18.21;73.44;97237.22;5036703;28;20045;-56
2023/07/04 07:06:12;;;;;;;5.60;2.13;;;;;;;18.25;73.44;97235.50;5038959;28;20080;-53
2023/07/04 07:08:40;;;;;;;7.55;2.40;;;;;;;18.26;71.27;97250.00;5045728;28;20468;-57
2023/07/04 07:11:11;;;;;;;7.05;1.73;;;;;;;18.52;70.61;97238.50;5039495;28;20504;-57
2023/07/04 07:13:39;;;;;;;5.72;2.58;;;;;;;18.30;72.15;97243.63;5042593;28;20499;-57
2023/07/04 07:16:12;;;;;;;6.57;2.10;;;;;;;18.19;73.10;97240.28;5045100;28;20491;-53
2023/07/04 07:18:41;;;;;;;4.68;1.95;;;;;;;18.40;73.02;97239.03;5042980;28;20629;-53
2023/07/04 07:21:11;;;;;;;7.47;2.75;;;;;;;18.53;69.72;97238.19;5050168;28;21109;-55
2023/07/04 07:23:39;;;;;;;7.57;2.33;;;;;;;18.50;69.07;97235.25;5039828;28;20041;-54
2023/07/04 07:26:08;;;;;;;7.03;2.28;;;;;;;18.64;68.22;97232.50;5048375;28;20076;-54
2023/07/04 07:28:38;;;;;;;8.20;2.33;;;;;;;18.85;68.54;97228.16;5047238;28;20063;-55
2023/07/04 07:31:20;;;;;;;6.75;2.10;;;;;;;18.84;69.15;97231.22;5039497;28;20917;-56
2023/07/04 07:33:48;;;;;;;6.13;2.00;;;;;;;18.90;68.15;97237.41;5038677;28;20045;-59
2023/07/04 07:36:20;;;;;;;9.20;2.35;;;;;;;19.03;67.95;97238.47;5039889;28;20041;-58
2023/07/04 07:38:48;;;;;;;7.15;2.08;;;;;;;19.19;67.49;97233.44;5042967;28;20045;-57
2023/07/04 07:41:15;;;;;;;6.82;2.25;;;;;;;19.19;67.89;97237.00;5027919;28;20897;-55
2023/07/04 07:43:42;;;;;;;6.70;2.72;;;;;;;18.88;70.61;97240.44;5036339;28;20053;-57
2023/07/04 07:46:11;;;;;;;6.22;2.20;;;;;;;18.98;69.36;97242.13;5028287;28;20060;-57
2023/07/04 07:48:38;;;;;;;6.07;2.50;;;;;;;18.92;70.38;97237.88;5041056;28;20103;-56
2023/07/04 07:51:07;;;;;;;5.35;2.40;;;;;;;19.25;68.57;97237.69;5049195;28;20037;-55
2023/07/04 07:53:36;;;;;;;5.88;2.22;;;;;;;19.22;67.32;97238.31;5048123;28;20396;-58
2023/07/04 07:56:03;;;;;;;5.82;2.10;;;;;;;19.44;66.56;97237.47;5032292;28;20056;-54
2023/07/04 07:58:31;;;;;;;7.32;2.40;;;;;;;19.63;66.32;97229.03;5039419;28;20094;-56
2023/07/04 08:00:57;;;;;;;9.02;2.97;;;;;;;19.73;64.90;97232.63;5043268;28;20719;-58
2023/07/04 08:03:24;;;;;;;10.13;2.58;;;;;;;19.80;64.71;97237.66;5042269;28;20553;-55
2023/07/04 08:05:51;;;;;;;6.90;2.42;;;;;;;19.66;64.20;97224.84;5039472;28;20045;-58
2023/07/04 08:08:17;;;;;;;11.43;2.38;;;;;;;19.78;64.38;97220.69;5043833;28;20436;-57
2023/07/04 08:10:44;;;;;;;5.97;2.38;;;;;;;19.14;66.66;97231.63;5039270;28;20038;-57
2023/07/04 08:13:11;;;;;;;6.57;2.67;;;;;;;19.02;65.51;97236.84;5037314;28;20102;-54
2023/07/04 08:15:37;;;;;;;7.28;2.70;;;;;;;19.22;64.46;97225.41;5053522;28;20446;-54
2023/07/04 08:18:06;;;;;;;6.32;2.55;;;;;;;19.23;64.73;97227.00;5047904;28;20071;-56
2023/07/04 08:20:32;;;;;;;6.55;2.60;;;;;;;19.49;63.91;97226.38;5039937;28;20055;-56
2023/07/04 08:22:59;;;;;;;7.18;2.80;;;;;;;19.63;62.93;97219.97;5031984;28;20040;-57
2023/07/04 08:25:26;;;;;;;6.55;2.60;;;;;;;19.81;63.25;97220.03;5041523;28;21090;-53
2023/07/04 08:27:53;;;;;;;6.53;2.28;;;;;;;20.04;62.78;97231.00;5046196;28;20052;-56
2023/07/04 08:30:21;;;;;;;7.25;2.65;;;;;;;20.09;63.07;97230.88;5037404;28;20176;-55
2023/07/04 08:32:47;;;;;;;7.10;2.38;;;;;;;20.17;62.87;97234.75;5048836;28;20049;-55
2023/07/04 08:35:15;;;;;;;8.20;2.92;;;;;;;20.24;61.47;97233.16;5026033;28;20716;-53
2023/07/04 08:37:42;;;;;;;8.45;2.20;;;;;;;20.52;60.61;97235.66;5030634;28;20045;-56
2023/07/04 08:40:11;;;;;;;5.90;2.30;;;;;;;20.06;61.15;97237.81;5041668;28;20064;-53
2023/07/04 08:42:39;;;;;;;7.55;2.58;;;;;;;20.20;62.18;97232.19;5041271;28;20060;-55
2023/07/04 08:45:16;;;;;;;10.27;3.33;;;;;;;20.33;60.07;97226.88;5040818;28;20048;-58
2023/07/04 08:47:43;;;;;;;7.75;3.00;;;;;;;20.52;59.45;97229.34;5036111;28;20127;-58
2023/07/04 08:50:25;;;;;;;7.15;3.13;;;;;;;20.58;58.57;97221.75;5034214;28;20045;-55
2023/07/04 08:53:03;;;;;;;11.98;4.28;;;;;;;20.73;55.66;97225.97;5046003;28;20045;-54
2023/07/04 08:55:34;;;;;;;8.55;3.65;;;;;;;20.43;56.87;97223.84;5049359;28;20047;-55
2023/07/04 08:58:03;;;;;;;10.48;3.60;;;;;;;20.23;55.57;97226.03;5037628;28;20041;-54
2023/07/04 09:00:44;;;;;;;8.13;3.45;;;;;;;20.22;53.86;97232.69;5045167;28;20041;-57
2023/07/04 09:03:28;;;;;;;5.72;3.10;;;;;;;20.33;55.75;97227.69;5045305;28;20055;-54
2023/07/04 09:06:19;;;;;;;9.65;3.53;;;;;;;20.43;56.26;97228.50;5051120;28;20044;-52
2023/07/04 09:09:17;;;;;;;6.28;3.05;;;;;;;20.32;57.01;97220.59;5038147;28;20044;-51
2023/07/04 09:11:47;;;;;;;7.18;3.00;;;;;;;20.65;57.97;97230.34;5042139;28;20037;-56
2023/07/04 09:14:31;;;;;;;6.68;3.00;;;;;;;20.87;54.18;97226.66;5040513;28;20455;-56
2023/07/04 09:17:04;;;;;;;8.25;3.67;;;;;;;20.82;52.78;97224.03;5036526;28;20048;-59
2023/07/04 09:19:38;;;;;;;8.85;3.72;;;;;;;21.00;50.91;97229.56;5037552;28;20045;-54
2023/07/04 09:22:06;;;;;;;9.50;4.63;;;;;;;21.22;49.48;97222.28;5033297;28;20058;-51
2023/07/04 09:24:33;;;;;;;11.15;3.70;;;;;;;21.08;50.69;97223.22;5037955;28;20047;-56
2023/07/04 09:27:01;;;;;;;7.18;3.53;;;;;;;20.84;51.52;97218.19;5043201;28;20045;-57
2023/07/04 09:29:28;;;;;;;8.05;3.72;;;;;;;20.74;51.68;97222.91;5039919;28;20048;-55
2023/07/04 09:31:58;;;;;;;8.05;3.50;;;;;;;20.80;51.84;97223.56;5042518;28;20070;-54
2023/07/04 09:34:34;;;;;;;7.93;3.97;;;;;;;20.59;51.45;97228.84;5042840;28;20045;-57
2023/07/04 09:37:10;;;;;;;10.90;4.55;;;;;;;20.56;52.06;97224.03;5037455;28;20051;-57
2023/07/04 09:39:54;;;;;;;9.20;4.10;;;;;;;20.72;50.94;97222.41;5047286;28;20554;-57
2023/07/04 09:42:42;;;;;;;8.38;3.75;;;;;;;20.70;51.72;97226.59;5040116;28;20059;-57
2023/07/04 09:45:21;;;;;;;7.60;4.10;;;;;;;20.73;49.98;97220.47;5041167;28;20049;-57
2023/07/04 09:47:48;;;;;;;10.18;4.22;;;;;;;20.83;49.62;97224.84;5038081;28;20045;-56
2023/07/04 09:50:21;;;;;;;8.23;4.43;;;;;;;20.98;49.46;97224.41;5041605;28;20127;-57
2023/07/04 09:53:01;;;;;;;7.88;4.00;;;;;;;21.21;48.62;97226.13;5050081;28;20070;-55
2023/07/04 09:55:28;;;;;;;8.48;3.90;;;;;;;21.39;49.47;97221.41;5036883;28;20072;-57
2023/07/04 09:58:22;;;;;;;9.25;4.63;;;;;;;21.69;47.72;97218.75;5034975;28;20055;-58
2023/07/04 10:01:15;;;;;;;7.40;4.20;;;;;;;21.85;45.84;97210.78;5038122;28;20067;-58
2023/07/04 10:03:45;;;;;;;10.40;4.38;;;;;;;22.07;46.37;97211.63;5044045;28;20057;-58
2023/07/04 10:06:28;;;;;;;9.07;5.00;;;;;;;22.07;44.77;97214.41;5040856;28;20408;-58
2023/07/04 10:08:56;;;;;;;11.75;4.50;;;;;;;22.01;46.25;97208.28;5039974;28;20051;-57
2023/07/04 10:11:35;;;;;;;10.10;4.43;;;;;;;21.95;46.05;97207.66;5043000;28;20121;-58
2023/07/04 10:14:10;;;;;;;8.73;3.70;;;;;;;21.74;47.09;97210.31;5041104;28;20039;-58
2023/07/04 10:16:45;;;;;;;7.75;4.20;;;;;;;21.86;45.83;97208.84;5033165;28;20041;-57
2023/07/04 10:19:14;;;;;;;8.98;4.38;;;;;;;22.20;45.69;97199.59;5038121;28;20116;-58
2023/07/04 10:21:41;;;;;;;7.45;3.95;;;;;;;22.29;45.32;97201.50;5040799;28;20045;-58
2023/07/04 10:24:12;;;;;;;10.07;4.13;;;;;;;22.48;44.27;97199.06;5037536;28;20052;-58
2023/07/04 10:26:39;;;;;;;7.40;3.75;;;;;;;22.54;44.72;97196.13;5047397;28;20426;-58
2023/07/04 10:29:07;;;;;;;10.77;4.38;;;;;;;22.64;43.78;97201.28;5036200;28;20037;-58
2023/07/04 10:31:35;;;;;;;9.20;4.68;;;;;;;22.40;44.46;97194.44;5038996;28;20049;-59
2023/07/04 10:34:07;;;;;;;8.70;3.80;;;;;;;22.57;43.35;97203.75;5040854;28;20845;-57
2023/07/04 10:36:37;;;;;;;10.52;4.97;;;;;;;22.58;43.78;97195.16;5041822;28;20051;-58
2023/07/04 10:39:09;;;;;;;10.48;4.60;;;;;;;22.60;42.36;97201.13;5049879;28;20040;-59
2023/07/04 10:42:15;;;;;;;9.45;4.35;;;;;;;22.75;41.59;97190.66;5035080;28;20120;-59
2023/07/04 10:44:46;;;;;;;6.80;3.75;;;;;;;22.46;42.30;97195.03;5037283;28;20467;-57
2023/07/04 10:47:22;;;;;;;9.43;4.45;;;;;;;22.59;41.79;97191.25;5043787;28;20044;-55
2023/07/04 10:49:56;;;;;;;9.32;4.72;;;;;;;22.59;43.02;97188.47;5045909;28;20040;-56
2023/07/04 10:52:32;;;;;;;8.75;3.60;;;;;;;22.53;43.95;97194.50;5043817;28;20039;-56
2023/07/04 10:55:00;;;;;;;8.68;4.60;;;;;;;22.57;44.09;97190.78;5047980;28;20108;-56
2023/07/04 10:57:35;;;;;;;7.68;4.38;;;;;;;22.39;44.45;97186.47;5048808;28;20107;-56
2023/07/04 11:00:10;;;;;;;10.45;4.63;;;;;;;22.54;44.34;97179.56;5039964;28;20068;-56
2023/07/04 11:02:43;;;;;;;6.25;3.55;;;;;;;22.63;44.24;97176.78;5045991;28;20037;-55
2023/07/04 11:05:14;;;;;;;8.10;3.78;;;;;;;22.33;43.62;97191.38;5039437;28;20041;-56
2023/07/04 11:07:43;;;;;;;7.78;3.65;;;;;;;22.39;42.75;97181.78;5050256;28;20522;-55
2023/07/04 11:10:12;;;;;;;8.77;3.78;;;;;;;22.80;43.22;97178.56;5038964;28;20056;-56
2023/07/04 11:12:42;;;;;;;8.98;4.13;;;;;;;23.07;40.55;97173.66;5044636;28;20033;-56
2023/07/04 11:15:29;;;;;;;7.22;3.85;;;;;;;23.00;40.65;97176.97;5046946;28;20660;-55
2023/07/04 11:17:56;;;;;;;7.07;3.85;;;;;;;22.89;40.33;97187.63;5040947;28;20045;-56
2023/07/04 11:20:53;;;;;;;10.00;4.65;;;;;;;22.93;40.18;97174.75;5050484;28;20048;-53
2023/07/04 11:23:22;;;;;;;7.28;4.32;;;;;;;23.11;40.49;97177.34;5031272;28;20060;-56
2023/07/04 11:26:03;;;;;;;7.10;3.45;;;;;;;23.22;39.69;97181.28;5051121;28;20037;-54
2023/07/04 11:28:36;;;;;;;7.70;3.55;;;;;;;22.79;40.89;97176.97;5043825;28;20504;-56
2023/07/04 11:31:14;;;;;;;8.68;4.13;;;;;;;23.03;40.70;97169.94;5035478;28;20045;-56
2023/07/04 11:34:02;;;;;;;7.43;3.67;;;;;;;22.79;39.92;97182.50;5046374;28;20041;-55
2023/07/04 11:36:36;;;;;;;10.75;3.78;;;;;;;22.98;39.95;97177.28;5046350;28;20078;-54
2023/07/04 11:39:04;;;;;;;5.97;3.35;;;;;;;23.41;39.12;97181.94;5044137;28;20525;-54
2023/07/04 11:41:34;;;;;;;6.28;3.53;;;;;;;23.12;38.33;97182.53;5048487;28;20588;-56
2023/07/04 11:44:28;;;;;;;8.50;4.18;;;;;;;23.31;37.86;97180.38;5044664;28;20067;-56
2023/07/04 11:47:08;;;;;;;6.40;3.20;;;;;;;23.25;38.10;97163.22;5041777;28;20044;-56